sensor_id;sensor_type;location;lat;lon;timestamp;pressure;altitude;pressure_sealevel;temperature;humidity
5126;BME280;63008;53.112;8.896;2022-10-17T00:00:21;101872.69;;;12.40;84.57
5126;BME280;63008;53.112;8.896;2022-10-17T00:02:26;101869.94;;;12.40;84.97
5126;BME280;63008;53.112;8.896;2022-10-17T00:04:27;101869.94;;;12.40;85.07
5126;BME280;63008;53.112;8.896;2022-10-17T00:06:28;101876.28;;;12.49;84.74
5126;BME280;63008;53.112;8.896;2022-10-17T00:08:29;101883.91;;;12.43;84.74
5126;BME280;63008;53.112;8.896;2022-10-17T00:10:30;101894.72;;;12.40;84.88
5126;BME280;63008;53.112;8.896;2022-10-17T00:12:31;101898.41;;;12.35;85.37
5126;BME280;63008;53.112;8.896;2022-10-17T00:14:32;101886.13;;;12.41;85.36
5126;BME280;63008;53.112;8.896;2022-10-17T00:16:34;101886.94;;;12.42;85.31
5126;BME280;63008;53.112;8.896;2022-10-17T00:18:38;101885.16;;;12.37;85.10
5126;BME280;63008;53.112;8.896;2022-10-17T00:20:39;101882.72;;;12.36;85.10
5126;BME280;63008;53.112;8.896;2022-10-17T00:22:41;101885.03;;;12.42;85.46
5126;BME280;63008;53.112;8.896;2022-10-17T00:24:42;101876.78;;;12.42;85.13
5126;BME280;63008;53.112;8.896;2022-10-17T00:26:43;101883.06;;;12.43;84.98
5126;BME280;63008;53.112;8.896;2022-10-17T00:28:50;101886.50;;;12.48;84.88
5126;BME280;63008;53.112;8.896;2022-10-17T00:30:58;101890.19;;;12.44;84.37
5126;BME280;63008;53.112;8.896;2022-10-17T00:32:59;101888.56;;;12.43;84.61
5126;BME280;63008;53.112;8.896;2022-10-17T00:35:00;101896.38;;;12.49;84.78
5126;BME280;63008;53.112;8.896;2022-10-17T00:37:01;101887.94;;;12.46;84.86
5126;BME280;63008;53.112;8.896;2022-10-17T00:39:02;101892.16;;;12.43;85.08
5126;BME280;63008;53.112;8.896;2022-10-17T00:41:04;101889.22;;;12.40;85.09
5126;BME280;63008;53.112;8.896;2022-10-17T00:43:14;101889.75;;;12.50;85.11
5126;BME280;63008;53.112;8.896;2022-10-17T00:45:23;101892.22;;;12.60;84.62
5126;BME280;63008;53.112;8.896;2022-10-17T00:47:26;101892.69;;;12.54;84.82
5126;BME280;63008;53.112;8.896;2022-10-17T00:49:30;101895.88;;;12.47;84.95
5126;BME280;63008;53.112;8.896;2022-10-17T00:51:52;101880.47;;;12.38;85.37
5126;BME280;63008;53.112;8.896;2022-10-17T00:53:54;101876.59;;;12.39;85.40
5126;BME280;63008;53.112;8.896;2022-10-17T00:55:55;101867.19;;;12.40;85.25
5126;BME280;63008;53.112;8.896;2022-10-17T00:57:57;101870.44;;;12.42;85.40
5126;BME280;63008;53.112;8.896;2022-10-17T01:00:06;101869.91;;;12.31;85.52
5126;BME280;63008;53.112;8.896;2022-10-17T01:02:12;101873.97;;;12.34;85.74
5126;BME280;63008;53.112;8.896;2022-10-17T01:04:14;101875.41;;;12.31;85.66
5126;BME280;63008;53.112;8.896;2022-10-17T01:06:15;101880.09;;;12.31;85.77
5126;BME280;63008;53.112;8.896;2022-10-17T01:08:16;101876.88;;;12.37;85.21
5126;BME280;63008;53.112;8.896;2022-10-17T01:10:17;101877.00;;;12.24;86.10
5126;BME280;63008;53.112;8.896;2022-10-17T01:12:25;101882.84;;;12.31;86.26
5126;BME280;63008;53.112;8.896;2022-10-17T01:14:33;101888.34;;;12.31;85.97
5126;BME280;63008;53.112;8.896;2022-10-17T01:16:45;101890.34;;;12.39;86.14
5126;BME280;63008;53.112;8.896;2022-10-17T01:26:03;101901.25;;;12.52;85.74
5126;BME280;63008;53.112;8.896;2022-10-17T01:30:55;101893.50;;;12.63;85.63
5126;BME280;63008;53.112;8.896;2022-10-17T01:33:07;101885.41;;;12.66;85.59
5126;BME280;63008;53.112;8.896;2022-10-17T01:35:33;101887.84;;;12.68;85.59
5126;BME280;63008;53.112;8.896;2022-10-17T01:38:04;101884.78;;;12.69;85.80
5126;BME280;63008;53.112;8.896;2022-10-17T01:40:29;101881.22;;;12.69;85.77
5126;BME280;63008;53.112;8.896;2022-10-17T01:42:38;101878.13;;;12.70;85.83
5126;BME280;63008;53.112;8.896;2022-10-17T01:47:10;101869.72;;;12.75;85.68
5126;BME280;63008;53.112;8.896;2022-10-17T01:49:15;101861.78;;;12.73;85.46
5126;BME280;63008;53.112;8.896;2022-10-17T01:51:21;101859.53;;;12.75;85.64
5126;BME280;63008;53.112;8.896;2022-10-17T01:53:32;101852.88;;;12.76;85.51
5126;BME280;63008;53.112;8.896;2022-10-17T01:55:39;101854.50;;;12.77;85.33
5126;BME280;63008;53.112;8.896;2022-10-17T01:57:46;101853.19;;;12.75;85.41
5126;BME280;63008;53.112;8.896;2022-10-17T01:59:51;101844.13;;;12.74;85.48
5126;BME280;63008;53.112;8.896;2022-10-17T02:01:54;101843.47;;;12.77;85.47
5126;BME280;63008;53.112;8.896;2022-10-17T02:03:58;101840.72;;;12.77;85.39
5126;BME280;63008;53.112;8.896;2022-10-17T02:06:01;101837.31;;;12.80;85.25
5126;BME280;63008;53.112;8.896;2022-10-17T02:08:03;101833.78;;;12.80;85.08
5126;BME280;63008;53.112;8.896;2022-10-17T02:10:07;101837.31;;;12.80;85.20
5126;BME280;63008;53.112;8.896;2022-10-17T02:17:13;101824.84;;;12.74;85.03
5126;BME280;63008;53.112;8.896;2022-10-17T02:19:39;101828.25;;;12.72;85.02
5126;BME280;63008;53.112;8.896;2022-10-17T02:24:19;101819.81;;;12.68;85.34
5126;BME280;63008;53.112;8.896;2022-10-17T02:26:32;101817.22;;;12.72;85.42
5126;BME280;63008;53.112;8.896;2022-10-17T02:28:45;101809.28;;;12.70;85.46
5126;BME280;63008;53.112;8.896;2022-10-17T02:30:52;101802.63;;;12.71;85.67
5126;BME280;63008;53.112;8.896;2022-10-17T02:33:01;101797.94;;;12.72;85.68
5126;BME280;63008;53.112;8.896;2022-10-17T02:35:04;101797.94;;;12.72;85.83
5126;BME280;63008;53.112;8.896;2022-10-17T02:37:10;101809.09;;;12.75;85.84
5126;BME280;63008;53.112;8.896;2022-10-17T02:39:15;101801.84;;;12.71;85.72
5126;BME280;63008;53.112;8.896;2022-10-17T02:41:17;101806.03;;;12.68;85.94
5126;BME280;63008;53.112;8.896;2022-10-17T02:43:19;101799.22;;;12.66;85.82
5126;BME280;63008;53.112;8.896;2022-10-17T02:45:22;101798.41;;;12.65;86.15
5126;BME280;63008;53.112;8.896;2022-10-17T02:47:28;101791.13;;;12.61;86.43
5126;BME280;63008;53.112;8.896;2022-10-17T02:49:35;101785.59;;;12.61;86.50
5126;BME280;63008;53.112;8.896;2022-10-17T02:52:02;101784.16;;;12.63;86.63
5126;BME280;63008;53.112;8.896;2022-10-17T02:56:26;101791.59;;;12.63;86.72
5126;BME280;63008;53.112;8.896;2022-10-17T02:58:31;101799.69;;;12.68;86.75
5126;BME280;63008;53.112;8.896;2022-10-17T03:00:33;101793.69;;;12.66;86.89
5126;BME280;63008;53.112;8.896;2022-10-17T03:02:46;101792.56;;;12.67;87.11
5126;BME280;63008;53.112;8.896;2022-10-17T03:04:47;101794.53;;;12.66;87.16
5126;BME280;63008;53.112;8.896;2022-10-17T03:06:49;101780.75;;;12.66;87.23
5126;BME280;63008;53.112;8.896;2022-10-17T03:08:49;101788.53;;;12.64;87.52
5126;BME280;63008;53.112;8.896;2022-10-17T03:10:50;101777.34;;;12.61;87.54
5126;BME280;63008;53.112;8.896;2022-10-17T03:12:51;101774.41;;;12.57;87.69
5126;BME280;63008;53.112;8.896;2022-10-17T03:14:52;101774.75;;;12.56;87.87
5126;BME280;63008;53.112;8.896;2022-10-17T03:16:53;101783.97;;;12.60;87.95
5126;BME280;63008;53.112;8.896;2022-10-17T03:18:54;101787.56;;;12.60;88.15
5126;BME280;63008;53.112;8.896;2022-10-17T03:20:55;101787.22;;;12.62;87.93
5126;BME280;63008;53.112;8.896;2022-10-17T03:22:56;101781.72;;;12.62;88.08
5126;BME280;63008;53.112;8.896;2022-10-17T03:24:57;101783.97;;;12.60;88.00
5126;BME280;63008;53.112;8.896;2022-10-17T03:26:58;101770.53;;;12.58;88.17
5126;BME280;63008;53.112;8.896;2022-10-17T03:28:59;101778.00;;;12.58;88.23
5126;BME280;63008;53.112;8.896;2022-10-17T03:31:13;101773.63;;;12.57;88.38
5126;BME280;63008;53.112;8.896;2022-10-17T03:33:14;101760.16;;;12.55;88.57
5126;BME280;63008;53.112;8.896;2022-10-17T03:35:15;101771.16;;;12.55;88.58
5126;BME280;63008;53.112;8.896;2022-10-17T03:37:16;101767.13;;;12.53;88.65
5126;BME280;63008;53.112;8.896;2022-10-17T03:39:17;101763.91;;;12.51;88.56
5126;BME280;63008;53.112;8.896;2022-10-17T03:41:18;101762.91;;;12.55;88.75
5126;BME280;63008;53.112;8.896;2022-10-17T03:43:19;101772.31;;;12.54;88.98
5126;BME280;63008;53.112;8.896;2022-10-17T03:45:20;101764.88;;;12.55;88.95
5126;BME280;63008;53.112;8.896;2022-10-17T03:47:21;101769.56;;;12.54;89.01
5126;BME280;63008;53.112;8.896;2022-10-17T03:49:22;101776.19;;;12.53;89.04
5126;BME280;63008;53.112;8.896;2022-10-17T03:51:23;101777.81;;;12.54;88.94
5126;BME280;63008;53.112;8.896;2022-10-17T03:53:24;101781.22;;;12.60;88.89
5126;BME280;63008;53.112;8.896;2022-10-17T03:55:25;101780.25;;;12.56;89.01
5126;BME280;63008;53.112;8.896;2022-10-17T03:57:26;101778.47;;;12.51;89.39
5126;BME280;63008;53.112;8.896;2022-10-17T03:59:27;101782.19;;;12.55;89.19
5126;BME280;63008;53.112;8.896;2022-10-17T04:01:28;101786.41;;;12.53;89.24
5126;BME280;63008;53.112;8.896;2022-10-17T04:03:29;101780.41;;;12.51;89.66
5126;BME280;63008;53.112;8.896;2022-10-17T04:05:30;101785.28;;;12.54;89.51
5126;BME280;63008;53.112;8.896;2022-10-17T04:07:31;101790.78;;;12.54;89.36
5126;BME280;63008;53.112;8.896;2022-10-17T04:09:32;101784.94;;;12.55;89.64
5126;BME280;63008;53.112;8.896;2022-10-17T04:11:33;101795.97;;;12.55;89.75
5126;BME280;63008;53.112;8.896;2022-10-17T04:13:34;101784.63;;;12.57;89.67
5126;BME280;63008;53.112;8.896;2022-10-17T04:15:35;101785.44;;;12.57;89.41
5126;BME280;63008;53.112;8.896;2022-10-17T04:17:36;101773.44;;;12.53;89.57
5126;BME280;63008;53.112;8.896;2022-10-17T04:19:37;101777.81;;;12.54;89.87
5126;BME280;63008;53.112;8.896;2022-10-17T04:21:38;101779.44;;;12.55;89.95
5126;BME280;63008;53.112;8.896;2022-10-17T04:23:39;101775.41;;;12.53;89.92
5126;BME280;63008;53.112;8.896;2022-10-17T04:25:40;101766.31;;;12.52;89.93
5126;BME280;63008;53.112;8.896;2022-10-17T04:27:44;101769.25;;;12.56;90.31
5126;BME280;63008;53.112;8.896;2022-10-17T04:29:45;101769.72;;;12.58;90.59
5126;BME280;63008;53.112;8.896;2022-10-17T04:31:46;101769.91;;;12.61;90.23
5126;BME280;63008;53.112;8.896;2022-10-17T04:33:48;101769.56;;;12.63;90.16
5126;BME280;63008;53.112;8.896;2022-10-17T04:35:59;101770.53;;;12.67;90.35
5126;BME280;63008;53.112;8.896;2022-10-17T04:38:00;101777.19;;;12.66;90.68
5126;BME280;63008;53.112;8.896;2022-10-17T04:40:01;101774.41;;;12.66;90.76
5126;BME280;63008;53.112;8.896;2022-10-17T04:42:03;101774.13;;;12.67;90.62
5126;BME280;63008;53.112;8.896;2022-10-17T04:44:04;101772.50;;;12.74;90.59
5126;BME280;63008;53.112;8.896;2022-10-17T04:46:08;101773.94;;;12.72;90.81
5126;BME280;63008;53.112;8.896;2022-10-17T04:48:09;101775.91;;;12.72;90.76
5126;BME280;63008;53.112;8.896;2022-10-17T04:50:10;101770.06;;;12.81;90.73
5126;BME280;63008;53.112;8.896;2022-10-17T04:52:11;101766.50;;;12.81;90.37
5126;BME280;63008;53.112;8.896;2022-10-17T04:54:12;101762.63;;;12.82;90.46
5126;BME280;63008;53.112;8.896;2022-10-17T04:56:16;101772.03;;;12.81;90.42
5126;BME280;63008;53.112;8.896;2022-10-17T04:58:17;101764.91;;;12.80;90.44
5126;BME280;63008;53.112;8.896;2022-10-17T05:00:18;101769.09;;;12.86;90.41
5126;BME280;63008;53.112;8.896;2022-10-17T05:02:19;101759.03;;;12.90;90.43
5126;BME280;63008;53.112;8.896;2022-10-17T05:04:20;101767.16;;;12.86;90.35
5126;BME280;63008;53.112;8.896;2022-10-17T05:06:24;101780.13;;;12.86;90.15
5126;BME280;63008;53.112;8.896;2022-10-17T05:08:25;101773.00;;;12.85;90.32
5126;BME280;63008;53.112;8.896;2022-10-17T05:10:26;101765.56;;;12.85;90.28
5126;BME280;63008;53.112;8.896;2022-10-17T05:12:26;101765.38;;;12.82;90.25
5126;BME280;63008;53.112;8.896;2022-10-17T05:14:27;101762.28;;;12.83;90.34
5126;BME280;63008;53.112;8.896;2022-10-17T05:16:29;101765.38;;;12.82;90.44
5126;BME280;63008;53.112;8.896;2022-10-17T05:18:30;101768.13;;;12.82;90.69
5126;BME280;63008;53.112;8.896;2022-10-17T05:20:31;101764.72;;;12.85;90.50
5126;BME280;63008;53.112;8.896;2022-10-17T05:22:32;101761.31;;;12.88;90.45
5126;BME280;63008;53.112;8.896;2022-10-17T05:24:33;101765.69;;;12.89;90.31
5126;BME280;63008;53.112;8.896;2022-10-17T05:26:37;101764.91;;;12.88;90.43
5126;BME280;63008;53.112;8.896;2022-10-17T05:28:38;101765.69;;;12.89;90.40
5126;BME280;63008;53.112;8.896;2022-10-17T05:30:40;101756.94;;;12.87;90.26
5126;BME280;63008;53.112;8.896;2022-10-17T05:32:40;101762.94;;;12.89;90.36
5126;BME280;63008;53.112;8.896;2022-10-17T05:34:41;101753.88;;;12.88;90.60
5126;BME280;63008;53.112;8.896;2022-10-17T05:36:42;101745.13;;;12.86;90.62
5126;BME280;63008;53.112;8.896;2022-10-17T05:38:48;101755.00;;;12.87;90.48
5126;BME280;63008;53.112;8.896;2022-10-17T05:40:49;101747.88;;;12.86;90.41
5126;BME280;63008;53.112;8.896;2022-10-17T05:42:50;101741.56;;;12.86;90.50
5126;BME280;63008;53.112;8.896;2022-10-17T05:44:51;101745.13;;;12.86;90.80
5126;BME280;63008;53.112;8.896;2022-10-17T05:46:52;101747.53;;;12.88;90.59
5126;BME280;63008;53.112;8.896;2022-10-17T05:48:53;101742.69;;;12.85;90.50
5126;BME280;63008;53.112;8.896;2022-10-17T05:51:00;101745.47;;;12.93;90.92
5126;BME280;63008;53.112;8.896;2022-10-17T05:53:01;101750.78;;;12.90;90.88
5126;BME280;63008;53.112;8.896;2022-10-17T05:55:03;101755.50;;;12.89;90.71
5126;BME280;63008;53.112;8.896;2022-10-17T05:57:05;101743.66;;;12.89;91.04
5126;BME280;63008;53.112;8.896;2022-10-17T05:59:06;101747.72;;;12.91;90.77
5126;BME280;63008;53.112;8.896;2022-10-17T06:01:07;101745.28;;;12.90;90.74
5126;BME280;63008;53.112;8.896;2022-10-17T06:03:10;101748.84;;;12.90;90.96
5126;BME280;63008;53.112;8.896;2022-10-17T06:05:12;101742.84;;;12.88;90.79
5126;BME280;63008;53.112;8.896;2022-10-17T06:07:14;101738.47;;;12.87;91.01
5126;BME280;63008;53.112;8.896;2022-10-17T06:09:15;101744.00;;;12.87;90.99
5126;BME280;63008;53.112;8.896;2022-10-17T06:11:16;101725.88;;;12.95;90.99
5126;BME280;63008;53.112;8.896;2022-10-17T06:13:17;101724.38;;;12.97;90.93
5126;BME280;63008;53.112;8.896;2022-10-17T06:15:18;101728.28;;;12.96;90.89
5126;BME280;63008;53.112;8.896;2022-10-17T06:17:19;101727.97;;;12.98;91.03
5126;BME280;63008;53.112;8.896;2022-10-17T06:19:20;101734.28;;;12.98;90.92
5126;BME280;63008;53.112;8.896;2022-10-17T06:21:24;101732.81;;;13.01;90.83
5126;BME280;63008;53.112;8.896;2022-10-17T06:23:25;101734.75;;;13.00;90.78
5126;BME280;63008;53.112;8.896;2022-10-17T06:25:30;101743.50;;;13.02;90.96
5126;BME280;63008;53.112;8.896;2022-10-17T06:27:31;101744.31;;;13.03;90.98
5126;BME280;63008;53.112;8.896;2022-10-17T06:29:32;101758.75;;;13.08;90.86
5126;BME280;63008;53.112;8.896;2022-10-17T06:31:33;101760.69;;;13.08;90.92
5126;BME280;63008;53.112;8.896;2022-10-17T06:33:34;101754.53;;;13.11;90.84
5126;BME280;63008;53.112;8.896;2022-10-17T06:35:35;101757.63;;;13.18;90.80
5126;BME280;63008;53.112;8.896;2022-10-17T06:37:36;101759.38;;;13.31;90.42
5126;BME280;63008;53.112;8.896;2022-10-17T06:39:37;101757.09;;;13.41;90.20
5126;BME280;63008;53.112;8.896;2022-10-17T06:41:38;101764.53;;;13.41;90.03
5126;BME280;63008;53.112;8.896;2022-10-17T06:43:42;101766.34;;;13.37;90.38
5126;BME280;63008;53.112;8.896;2022-10-17T06:45:46;101765.84;;;13.43;90.22
5126;BME280;63008;53.112;8.896;2022-10-17T06:47:47;101778.13;;;13.54;89.97
5126;BME280;63008;53.112;8.896;2022-10-17T06:49:49;101777.00;;;13.55;90.07
5126;BME280;63008;53.112;8.896;2022-10-17T06:51:50;101772.09;;;13.61;89.98
5126;BME280;63008;53.112;8.896;2022-10-17T06:53:50;101778.94;;;13.63;90.11
5126;BME280;63008;53.112;8.896;2022-10-17T06:55:51;101780.22;;;13.74;89.72
5126;BME280;63008;53.112;8.896;2022-10-17T06:57:55;101784.41;;;13.80;89.72
5126;BME280;63008;53.112;8.896;2022-10-17T07:00:20;101793.28;;;13.94;89.28
5126;BME280;63008;53.112;8.896;2022-10-17T07:02:23;101793.84;;;14.08;88.89
5126;BME280;63008;53.112;8.896;2022-10-17T07:04:24;101791.25;;;14.12;88.81
5126;BME280;63008;53.112;8.896;2022-10-17T07:06:25;101789.88;;;14.26;88.23
5126;BME280;63008;53.112;8.896;2022-10-17T07:08:26;101789.53;;;14.36;88.01
5126;BME280;63008;53.112;8.896;2022-10-17T07:10:27;101784.16;;;14.40;88.03
5126;BME280;63008;53.112;8.896;2022-10-17T07:12:28;101794.94;;;14.53;87.91
5126;BME280;63008;53.112;8.896;2022-10-17T07:14:29;101799.75;;;14.64;86.87
5126;BME280;63008;53.112;8.896;2022-10-17T07:16:32;101802.31;;;14.69;87.01
5126;BME280;63008;53.112;8.896;2022-10-17T07:18:33;101803.75;;;14.75;86.77
5126;BME280;63008;53.112;8.896;2022-10-17T07:20:35;101806.78;;;14.82;86.43
5126;BME280;63008;53.112;8.896;2022-10-17T07:22:36;101817.97;;;14.86;86.61
5126;BME280;63008;53.112;8.896;2022-10-17T07:24:37;101821.53;;;14.86;86.34
5126;BME280;63008;53.112;8.896;2022-10-17T07:26:38;101817.31;;;14.89;86.28
5126;BME280;63008;53.112;8.896;2022-10-17T07:28:41;101806.44;;;15.04;85.46
5126;BME280;63008;53.112;8.896;2022-10-17T07:30:42;101807.72;;;15.07;85.56
5126;BME280;63008;53.112;8.896;2022-10-17T07:32:44;101820.53;;;15.11;85.65
5126;BME280;63008;53.112;8.896;2022-10-17T07:34:44;101808.47;;;15.16;85.37
5126;BME280;63008;53.112;8.896;2022-10-17T07:36:45;101819.31;;;15.21;85.33
5126;BME280;63008;53.112;8.896;2022-10-17T07:38:46;101829.38;;;15.25;84.79
5126;BME280;63008;53.112;8.896;2022-10-17T07:40:59;101815.50;;;15.34;84.73
5126;BME280;63008;53.112;8.896;2022-10-17T07:43:00;101815.53;;;15.46;84.17
5126;BME280;63008;53.112;8.896;2022-10-17T07:45:02;101828.22;;;15.47;84.45
5126;BME280;63008;53.112;8.896;2022-10-17T07:47:04;101828.56;;;15.45;84.20
5126;BME280;63008;53.112;8.896;2022-10-17T07:49:05;101826.06;;;15.52;83.74
5126;BME280;63008;53.112;8.896;2022-10-17T07:51:07;101824.13;;;15.53;84.12
5126;BME280;63008;53.112;8.896;2022-10-17T07:53:08;101819.84;;;15.55;84.00
5126;BME280;63008;53.112;8.896;2022-10-17T07:55:09;101815.91;;;15.56;83.91
5126;BME280;63008;53.112;8.896;2022-10-17T07:57:11;101807.63;;;15.56;83.89
5126;BME280;63008;53.112;8.896;2022-10-17T07:59:11;101807.28;;;15.58;83.80
5126;BME280;63008;53.112;8.896;2022-10-17T08:01:12;101808.56;;;15.60;84.02
5126;BME280;63008;53.112;8.896;2022-10-17T08:03:14;101811.34;;;15.60;83.84
5126;BME280;63008;53.112;8.896;2022-10-17T08:05:15;101803.59;;;15.66;84.01
5126;BME280;63008;53.112;8.896;2022-10-17T08:07:16;101812.88;;;15.70;83.93
5126;BME280;63008;53.112;8.896;2022-10-17T08:09:18;101805.63;;;15.89;83.30
5126;BME280;63008;53.112;8.896;2022-10-17T08:11:19;101810.13;;;15.94;83.33
5126;BME280;63008;53.112;8.896;2022-10-17T08:13:21;101810.16;;;16.06;82.96
5126;BME280;63008;53.112;8.896;2022-10-17T08:15:24;101814.00;;;16.13;82.39
5126;BME280;63008;53.112;8.896;2022-10-17T08:17:25;101808.44;;;16.13;82.94
5126;BME280;63008;53.112;8.896;2022-10-17T08:19:26;101810.53;;;16.16;82.88
5126;BME280;63008;53.112;8.896;2022-10-17T08:21:27;101817.19;;;16.27;82.38
5126;BME280;63008;53.112;8.896;2022-10-17T08:23:28;101822.09;;;16.30;82.37
5126;BME280;63008;53.112;8.896;2022-10-17T08:25:29;101815.03;;;16.33;82.42
5126;BME280;63008;53.112;8.896;2022-10-17T08:27:33;101806.38;;;16.46;82.10
5126;BME280;63008;53.112;8.896;2022-10-17T08:29:36;101797.38;;;16.61;81.35
5126;BME280;63008;53.112;8.896;2022-10-17T08:31:36;101794.91;;;16.71;81.33
5126;BME280;63008;53.112;8.896;2022-10-17T08:33:38;101801.81;;;16.89;80.43
5126;BME280;63008;53.112;8.896;2022-10-17T08:35:39;101796.09;;;17.10;79.56
5126;BME280;63008;53.112;8.896;2022-10-17T08:37:40;101809.84;;;17.18;79.46
5126;BME280;63008;53.112;8.896;2022-10-17T08:39:41;101802.84;;;17.36;79.04
5126;BME280;63008;53.112;8.896;2022-10-17T08:42:49;101798.06;;;17.49;78.48
5126;BME280;63008;53.112;8.896;2022-10-17T08:46:47;101798.44;;;17.63;78.20
5126;BME280;63008;53.112;8.896;2022-10-17T08:48:51;101806.50;;;17.68;77.55
5126;BME280;63008;53.112;8.896;2022-10-17T08:51:06;101802.22;;;17.86;77.07
5126;BME280;63008;53.112;8.896;2022-10-17T08:53:18;101809.06;;;17.88;77.02
5126;BME280;63008;53.112;8.896;2022-10-17T08:55:28;101805.75;;;17.98;76.51
5126;BME280;63008;53.112;8.896;2022-10-17T08:57:30;101805.66;;;17.95;76.71
5126;BME280;63008;53.112;8.896;2022-10-17T08:59:31;101807.63;;;17.94;76.52
5126;BME280;63008;53.112;8.896;2022-10-17T09:06:23;101815.63;;;17.96;76.77
5126;BME280;63008;53.112;8.896;2022-10-17T09:10:53;101813.81;;;18.19;76.52
5126;BME280;63008;53.112;8.896;2022-10-17T09:13:39;101812.25;;;18.33;75.90
5126;BME280;63008;53.112;8.896;2022-10-17T09:16:16;101817.16;;;18.55;75.63
5126;BME280;63008;53.112;8.896;2022-10-17T09:18:28;101816.34;;;18.54;75.21
5126;BME280;63008;53.112;8.896;2022-10-17T09:20:36;101813.66;;;18.58;75.36
5126;BME280;63008;53.112;8.896;2022-10-17T09:22:56;101804.22;;;18.62;75.47
5126;BME280;63008;53.112;8.896;2022-10-17T09:25:00;101796.31;;;18.64;74.99
5126;BME280;63008;53.112;8.896;2022-10-17T09:27:05;101795.88;;;18.62;75.37
5126;BME280;63008;53.112;8.896;2022-10-17T09:29:19;101798.47;;;18.71;75.40
5126;BME280;63008;53.112;8.896;2022-10-17T09:31:29;101802.94;;;18.75;75.21
5126;BME280;63008;53.112;8.896;2022-10-17T09:33:39;101800.22;;;18.79;74.88
5126;BME280;63008;53.112;8.896;2022-10-17T09:35:41;101813.00;;;18.99;74.61
5126;BME280;63008;53.112;8.896;2022-10-17T09:37:43;101819.47;;;19.03;74.27
5126;BME280;63008;53.112;8.896;2022-10-17T09:39:45;101816.00;;;19.09;73.98
5126;BME280;63008;53.112;8.896;2022-10-17T09:41:53;101823.09;;;19.22;74.14
5126;BME280;63008;53.112;8.896;2022-10-17T09:43:55;101825.22;;;19.29;73.66
5126;BME280;63008;53.112;8.896;2022-10-17T09:48:13;101815.53;;;19.42;72.91
5126;BME280;63008;53.112;8.896;2022-10-17T09:50:27;101817.38;;;19.53;72.58
5126;BME280;63008;53.112;8.896;2022-10-17T09:52:34;101823.88;;;19.61;72.79
5126;BME280;63008;53.112;8.896;2022-10-17T09:54:48;101827.09;;;19.63;72.86
5126;BME280;63008;53.112;8.896;2022-10-17T09:56:59;101839.63;;;19.72;72.53
5126;BME280;63008;53.112;8.896;2022-10-17T09:59:00;101831.16;;;19.88;71.81
5126;BME280;63008;53.112;8.896;2022-10-17T10:01:18;101826.63;;;19.80;72.46
5126;BME280;63008;53.112;8.896;2022-10-17T10:03:24;101831.97;;;19.88;72.67
5126;BME280;63008;53.112;8.896;2022-10-17T10:05:25;101840.03;;;19.93;71.15
5126;BME280;63008;53.112;8.896;2022-10-17T10:07:32;101846.03;;;19.95;71.54
5126;BME280;63008;53.112;8.896;2022-10-17T10:09:35;101841.94;;;19.89;71.96
5126;BME280;63008;53.112;8.896;2022-10-17T10:11:48;101849.94;;;19.91;72.14
5126;BME280;63008;53.112;8.896;2022-10-17T10:13:50;101852.66;;;19.87;72.41
5126;BME280;63008;53.112;8.896;2022-10-17T10:15:51;101844.97;;;19.81;72.52
5126;BME280;63008;53.112;8.896;2022-10-17T10:17:52;101849.69;;;19.77;72.68
5126;BME280;63008;53.112;8.896;2022-10-17T10:19:53;101848.72;;;19.69;73.06
5126;BME280;63008;53.112;8.896;2022-10-17T10:22:03;101850.69;;;19.69;73.07
5126;BME280;63008;53.112;8.896;2022-10-17T10:24:12;101850.25;;;19.67;73.15
5126;BME280;63008;53.112;8.896;2022-10-17T10:26:25;101854.59;;;19.64;73.36
5126;BME280;63008;53.112;8.896;2022-10-17T10:28:31;101858.28;;;19.68;73.03
5126;BME280;63008;53.112;8.896;2022-10-17T10:30:33;101856.28;;;19.69;73.59
5126;BME280;63008;53.112;8.896;2022-10-17T10:32:35;101866.31;;;19.73;73.58
5126;BME280;63008;53.112;8.896;2022-10-17T10:34:44;101866.53;;;19.84;72.96
5126;BME280;63008;53.112;8.896;2022-10-17T10:36:56;101883.84;;;19.93;72.64
5126;BME280;63008;53.112;8.896;2022-10-17T10:38:59;101879.34;;;20.07;72.63
5126;BME280;63008;53.112;8.896;2022-10-17T10:41:07;101880.41;;;20.22;71.66
5126;BME280;63008;53.112;8.896;2022-10-17T10:43:30;101882.16;;;20.30;71.26
5126;BME280;63008;53.112;8.896;2022-10-17T10:47:36;101879.88;;;20.35;70.79
5126;BME280;63008;53.112;8.896;2022-10-17T10:49:38;101883.38;;;20.32;70.98
5126;BME280;63008;53.112;8.896;2022-10-17T10:51:43;101885.25;;;20.25;70.83
5126;BME280;63008;53.112;8.896;2022-10-17T10:53:58;101882.84;;;20.23;70.89
5126;BME280;63008;53.112;8.896;2022-10-17T10:56:11;101890.38;;;20.23;71.26
5126;BME280;63008;53.112;8.896;2022-10-17T10:58:41;101893.56;;;20.21;71.24
5126;BME280;63008;53.112;8.896;2022-10-17T11:00:46;101886.72;;;20.19;71.30
5126;BME280;63008;53.112;8.896;2022-10-17T11:07:32;101898.78;;;20.04;71.97
5126;BME280;63008;53.112;8.896;2022-10-17T11:11:49;101917.75;;;19.98;72.46
5126;BME280;63008;53.112;8.896;2022-10-17T11:13:59;101920.50;;;19.95;72.38
5126;BME280;63008;53.112;8.896;2022-10-17T11:16:15;101926.50;;;19.97;72.58
5126;BME280;63008;53.112;8.896;2022-10-17T11:18:27;101944.47;;;19.80;73.02
5126;BME280;63008;53.112;8.896;2022-10-17T11:20:37;101947.13;;;19.73;73.85
5126;BME280;63008;53.112;8.896;2022-10-17T11:22:46;101932.44;;;19.57;77.46
5126;BME280;63008;53.112;8.896;2022-10-17T11:25:21;101934.81;;;19.21;80.65
5126;BME280;63008;53.112;8.896;2022-10-17T11:27:18;101947.69;;;18.94;81.23
5126;BME280;63008;53.112;8.896;2022-10-17T11:29:28;101949.56;;;18.75;83.21
5126;BME280;63008;53.112;8.896;2022-10-17T11:31:33;101955.75;;;18.53;84.04
5126;BME280;63008;53.112;8.896;2022-10-17T11:36:17;101937.59;;;18.28;86.13
5126;BME280;63008;53.112;8.896;2022-10-17T11:38:35;101946.50;;;18.22;86.33
5126;BME280;63008;53.112;8.896;2022-10-17T11:40:42;101950.38;;;18.17;86.87
5126;BME280;63008;53.112;8.896;2022-10-17T11:42:56;101947.38;;;18.10;87.96
5126;BME280;63008;53.112;8.896;2022-10-17T11:45:14;101947.16;;;18.15;87.37